sensor_id;sensor_type;location;lat;lon;timestamp;P1;durP1;ratioP1;P2;durP2;ratioP2
61336;SDS011;47212;41.326;2.104;2022-09-21T00:01:21;4.95;;;2.63;;
61336;SDS011;47212;41.326;2.104;2022-09-21T00:06:30;9.50;;;3.67;;
61336;SDS011;47212;41.326;2.104;2022-09-21T00:11:34;5.63;;;2.97;;
61336;SDS011;47212;41.326;2.104;2022-09-21T00:16:38;6.85;;;3.10;;
61336;SDS011;47212;41.326;2.104;2022-09-21T00:21:42;7.30;;;3.50;;
61336;SDS011;47212;41.326;2.104;2022-09-21T00:26:44;9.35;;;3.85;;
61336;SDS011;47212;41.326;2.104;2022-09-21T00:31:45;9.25;;;3.42;;
61336;SDS011;47212;41.326;2.104;2022-09-21T00:36:53;7.15;;;3.45;;
61336;SDS011;47212;41.326;2.104;2022-09-21T00:41:55;9.20;;;3.67;;
61336;SDS011;47212;41.326;2.104;2022-09-21T00:47:00;9.05;;;4.05;;
61336;SDS011;47212;41.326;2.104;2022-09-21T00:52:07;10.30;;;4.10;;
61336;SDS011;47212;41.326;2.104;2022-09-21T00:57:13;8.35;;;3.78;;
61336;SDS011;47212;41.326;2.104;2022-09-21T01:05:11;7.03;;;3.65;;
61336;SDS011;47212;41.326;2.104;2022-09-21T01:10:16;8.18;;;3.80;;
61336;SDS011;47212;41.326;2.104;2022-09-21T01:31:30;12.70;;;4.65;;
61336;SDS011;47212;41.326;2.104;2022-09-21T01:37:03;7.85;;;4.00;;
61336;SDS011;47212;41.326;2.104;2022-09-21T01:42:13;13.35;;;4.68;;
61336;SDS011;47212;41.326;2.104;2022-09-21T01:47:18;10.38;;;4.50;;
61336;SDS011;47212;41.326;2.104;2022-09-21T01:57:52;10.82;;;4.00;;
61336;SDS011;47212;41.326;2.104;2022-09-21T02:03:20;6.68;;;3.63;;
61336;SDS011;47212;41.326;2.104;2022-09-21T02:08:44;9.73;;;3.80;;
61336;SDS011;47212;41.326;2.104;2022-09-21T02:13:47;8.75;;;3.88;;
61336;SDS011;47212;41.326;2.104;2022-09-21T02:24:19;7.55;;;3.53;;
61336;SDS011;47212;41.326;2.104;2022-09-21T02:29:48;7.82;;;3.67;;
61336;SDS011;47212;41.326;2.104;2022-09-21T02:34:52;7.05;;;3.20;;
61336;SDS011;47212;41.326;2.104;2022-09-21T02:50:58;10.65;;;3.55;;
61336;SDS011;47212;41.326;2.104;2022-09-21T02:56:05;9.65;;;3.28;;
61336;SDS011;47212;41.326;2.104;2022-09-21T03:07:10;8.25;;;3.40;;
61336;SDS011;47212;41.326;2.104;2022-09-21T03:12:12;6.57;;;3.67;;
61336;SDS011;47212;41.326;2.104;2022-09-21T03:17:14;10.20;;;4.32;;
61336;SDS011;47212;41.326;2.104;2022-09-21T03:22:16;10.05;;;3.90;;
61336;SDS011;47212;41.326;2.104;2022-09-21T03:27:19;11.70;;;4.35;;
61336;SDS011;47212;41.326;2.104;2022-09-21T03:32:21;9.73;;;3.92;;
61336;SDS011;47212;41.326;2.104;2022-09-21T03:37:24;9.50;;;3.67;;
61336;SDS011;47212;41.326;2.104;2022-09-21T03:42:28;6.63;;;4.05;;
61336;SDS011;47212;41.326;2.104;2022-09-21T03:47:30;11.57;;;4.55;;
61336;SDS011;47212;41.326;2.104;2022-09-21T03:52:32;9.93;;;4.13;;
61336;SDS011;47212;41.326;2.104;2022-09-21T03:57:35;8.35;;;3.78;;
61336;SDS011;47212;41.326;2.104;2022-09-21T04:02:37;7.60;;;3.67;;
61336;SDS011;47212;41.326;2.104;2022-09-21T04:07:41;8.00;;;4.40;;
61336;SDS011;47212;41.326;2.104;2022-09-21T04:12:48;11.18;;;4.78;;
61336;SDS011;47212;41.326;2.104;2022-09-21T04:17:57;9.57;;;3.85;;
61336;SDS011;47212;41.326;2.104;2022-09-21T04:22:59;14.00;;;4.72;;
61336;SDS011;47212;41.326;2.104;2022-09-21T04:28:01;8.82;;;4.25;;
61336;SDS011;47212;41.326;2.104;2022-09-21T04:33:03;11.63;;;5.35;;
61336;SDS011;47212;41.326;2.104;2022-09-21T04:38:05;9.27;;;4.68;;
61336;SDS011;47212;41.326;2.104;2022-09-21T04:43:07;9.68;;;5.00;;
61336;SDS011;47212;41.326;2.104;2022-09-21T04:48:12;10.95;;;5.45;;
61336;SDS011;47212;41.326;2.104;2022-09-21T04:53:18;8.82;;;5.05;;
61336;SDS011;47212;41.326;2.104;2022-09-21T04:58:21;13.32;;;5.47;;
61336;SDS011;47212;41.326;2.104;2022-09-21T05:03:25;10.32;;;5.72;;
61336;SDS011;47212;41.326;2.104;2022-09-21T05:08:27;9.45;;;5.20;;
61336;SDS011;47212;41.326;2.104;2022-09-21T05:13:48;8.43;;;4.78;;
61336;SDS011;47212;41.326;2.104;2022-09-21T05:18:51;10.20;;;4.18;;
61336;SDS011;47212;41.326;2.104;2022-09-21T05:23:55;11.13;;;4.55;;
61336;SDS011;47212;41.326;2.104;2022-09-21T05:29:01;8.55;;;4.55;;
61336;SDS011;47212;41.326;2.104;2022-09-21T05:39:36;13.50;;;4.50;;
61336;SDS011;47212;41.326;2.104;2022-09-21T05:44:39;17.60;;;4.97;;
61336;SDS011;47212;41.326;2.104;2022-09-21T05:50:01;7.30;;;3.75;;
61336;SDS011;47212;41.326;2.104;2022-09-21T05:55:31;9.73;;;3.90;;
61336;SDS011;47212;41.326;2.104;2022-09-21T06:00:48;8.70;;;4.53;;
61336;SDS011;47212;41.326;2.104;2022-09-21T06:05:59;10.40;;;5.20;;
61336;SDS011;47212;41.326;2.104;2022-09-21T06:11:05;15.27;;;5.47;;
61336;SDS011;47212;41.326;2.104;2022-09-21T06:16:07;8.60;;;5.13;;
61336;SDS011;47212;41.326;2.104;2022-09-21T06:21:09;10.35;;;4.45;;
61336;SDS011;47212;41.326;2.104;2022-09-21T06:26:11;7.70;;;3.70;;
61336;SDS011;47212;41.326;2.104;2022-09-21T06:31:13;7.80;;;4.35;;
61336;SDS011;47212;41.326;2.104;2022-09-21T06:36:16;13.10;;;3.90;;
61336;SDS011;47212;41.326;2.104;2022-09-21T06:41:18;8.77;;;4.40;;
61336;SDS011;47212;41.326;2.104;2022-09-21T06:46:21;11.55;;;4.15;;
61336;SDS011;47212;41.326;2.104;2022-09-21T06:51:24;9.50;;;4.70;;
61336;SDS011;47212;41.326;2.104;2022-09-21T06:56:26;6.97;;;4.00;;
61336;SDS011;47212;41.326;2.104;2022-09-21T07:01:28;8.05;;;3.60;;
61336;SDS011;47212;41.326;2.104;2022-09-21T07:06:31;8.48;;;3.22;;
61336;SDS011;47212;41.326;2.104;2022-09-21T07:11:33;6.18;;;2.60;;
61336;SDS011;47212;41.326;2.104;2022-09-21T07:16:35;5.18;;;2.25;;
61336;SDS011;47212;41.326;2.104;2022-09-21T07:21:37;5.72;;;2.22;;
61336;SDS011;47212;41.326;2.104;2022-09-21T07:26:39;3.90;;;2.00;;
61336;SDS011;47212;41.326;2.104;2022-09-21T07:31:49;7.72;;;2.80;;
61336;SDS011;47212;41.326;2.104;2022-09-21T07:36:52;8.00;;;2.28;;
61336;SDS011;47212;41.326;2.104;2022-09-21T07:41:54;5.80;;;2.08;;
61336;SDS011;47212;41.326;2.104;2022-09-21T07:46:57;5.00;;;2.30;;
61336;SDS011;47212;41.326;2.104;2022-09-21T07:51:59;4.68;;;2.17;;
61336;SDS011;47212;41.326;2.104;2022-09-21T07:57:06;7.95;;;2.25;;
61336;SDS011;47212;41.326;2.104;2022-09-21T08:02:27;7.30;;;2.40;;
61336;SDS011;47212;41.326;2.104;2022-09-21T08:07:29;5.35;;;1.95;;
61336;SDS011;47212;41.326;2.104;2022-09-21T08:12:42;3.35;;;1.85;;
61336;SDS011;47212;41.326;2.104;2022-09-21T08:17:48;2.80;;;1.55;;
61336;SDS011;47212;41.326;2.104;2022-09-21T08:22:54;4.82;;;1.67;;
61336;SDS011;47212;41.326;2.104;2022-09-21T08:27:57;6.55;;;2.10;;
61336;SDS011;47212;41.326;2.104;2022-09-21T08:33:10;5.30;;;1.50;;
61336;SDS011;47212;41.326;2.104;2022-09-21T08:38:12;8.68;;;1.88;;
61336;SDS011;47212;41.326;2.104;2022-09-21T08:48:53;4.63;;;1.40;;
61336;SDS011;47212;41.326;2.104;2022-09-21T08:54:05;6.32;;;1.83;;
61336;SDS011;47212;41.326;2.104;2022-09-21T08:59:15;4.90;;;1.55;;
61336;SDS011;47212;41.326;2.104;2022-09-21T09:04:23;6.03;;;1.55;;
61336;SDS011;47212;41.326;2.104;2022-09-21T09:15:13;4.07;;;1.58;;
61336;SDS011;47212;41.326;2.104;2022-09-21T09:20:36;4.25;;;1.73;;
61336;SDS011;47212;41.326;2.104;2022-09-21T09:25:45;2.33;;;1.27;;
61336;SDS011;47212;41.326;2.104;2022-09-21T09:31:00;7.68;;;1.67;;
61336;SDS011;47212;41.326;2.104;2022-09-21T09:36:13;3.17;;;1.42;;
61336;SDS011;47212;41.326;2.104;2022-09-21T09:52:49;3.40;;;1.30;;
61336;SDS011;47212;41.326;2.104;2022-09-21T09:58:00;4.07;;;1.52;;
61336;SDS011;47212;41.326;2.104;2022-09-21T10:03:07;3.65;;;1.15;;
61336;SDS011;47212;41.326;2.104;2022-09-21T10:13:38;4.75;;;1.40;;
61336;SDS011;47212;41.326;2.104;2022-09-21T10:18:54;3.58;;;1.35;;
61336;SDS011;47212;41.326;2.104;2022-09-21T10:24:03;5.32;;;1.50;;
61336;SDS011;47212;41.326;2.104;2022-09-21T10:29:18;3.03;;;1.50;;
61336;SDS011;47212;41.326;2.104;2022-09-21T10:34:33;5.43;;;1.45;;
61336;SDS011;47212;41.326;2.104;2022-09-21T10:39:38;3.17;;;1.25;;
61336;SDS011;47212;41.326;2.104;2022-09-21T10:55:30;3.42;;;1.83;;
61336;SDS011;47212;41.326;2.104;2022-09-21T11:00:33;2.88;;;1.38;;
61336;SDS011;47212;41.326;2.104;2022-09-21T11:05:47;4.38;;;1.60;;
61336;SDS011;47212;41.326;2.104;2022-09-21T11:16:29;4.90;;;1.40;;
61336;SDS011;47212;41.326;2.104;2022-09-21T11:27:01;2.40;;;1.40;;
61336;SDS011;47212;41.326;2.104;2022-09-21T11:43:43;6.60;;;1.60;;
61336;SDS011;47212;41.326;2.104;2022-09-21T12:16:01;4.20;;;1.52;;
61336;SDS011;47212;41.326;2.104;2022-09-21T12:21:19;4.13;;;1.85;;
61336;SDS011;47212;41.326;2.104;2022-09-21T12:26:36;3.60;;;1.80;;
61336;SDS011;47212;41.326;2.104;2022-09-21T12:32:02;2.88;;;1.20;;
61336;SDS011;47212;41.326;2.104;2022-09-21T12:37:24;2.83;;;0.98;;
61336;SDS011;47212;41.326;2.104;2022-09-21T12:42:48;9.93;;;3.35;;
61336;SDS011;47212;41.326;2.104;2022-09-21T12:53:01;6.57;;;1.90;;
61336;SDS011;47212;41.326;2.104;2022-09-21T12:58:21;10.40;;;2.53;;
61336;SDS011;47212;41.326;2.104;2022-09-21T13:03:42;8.10;;;2.25;;
61336;SDS011;47212;41.326;2.104;2022-09-21T13:08:56;7.28;;;2.10;;
61336;SDS011;47212;41.326;2.104;2022-09-21T13:14:03;4.38;;;1.95;;
61336;SDS011;47212;41.326;2.104;2022-09-21T13:24:24;5.75;;;1.83;;
61336;SDS011;47212;41.326;2.104;2022-09-21T13:29:32;4.10;;;1.90;;
61336;SDS011;47212;41.326;2.104;2022-09-21T13:34:39;5.32;;;1.75;;
61336;SDS011;47212;41.326;2.104;2022-09-21T13:44:54;2.85;;;1.50;;
61336;SDS011;47212;41.326;2.104;2022-09-21T13:50:00;6.20;;;1.60;;
61336;SDS011;47212;41.326;2.104;2022-09-21T13:55:26;2.78;;;1.48;;
61336;SDS011;47212;41.326;2.104;2022-09-21T14:00:34;1.73;;;1.23;;
61336;SDS011;47212;41.326;2.104;2022-09-21T14:05:54;3.92;;;1.67;;
61336;SDS011;47212;41.326;2.104;2022-09-21T14:27:21;4.60;;;1.70;;
61336;SDS011;47212;41.326;2.104;2022-09-21T14:32:41;5.18;;;1.70;;
61336;SDS011;47212;41.326;2.104;2022-09-21T14:37:49;3.33;;;1.45;;
61336;SDS011;47212;41.326;2.104;2022-09-21T14:43:25;6.03;;;1.52;;
61336;SDS011;47212;41.326;2.104;2022-09-21T14:54:01;4.28;;;1.45;;
61336;SDS011;47212;41.326;2.104;2022-09-21T15:21:38;4.53;;;1.55;;
61336;SDS011;47212;41.326;2.104;2022-09-21T15:26:43;10.93;;;1.52;;
61336;SDS011;47212;41.326;2.104;2022-09-21T15:31:47;4.80;;;1.63;;
61336;SDS011;47212;41.326;2.104;2022-09-21T15:36:49;4.00;;;1.30;;
61336;SDS011;47212;41.326;2.104;2022-09-21T15:42:07;4.32;;;1.27;;
61336;SDS011;47212;41.326;2.104;2022-09-21T15:47:11;3.78;;;1.48;;
61336;SDS011;47212;41.326;2.104;2022-09-21T15:52:22;3.25;;;1.30;;
61336;SDS011;47212;41.326;2.104;2022-09-21T15:57:36;2.78;;;1.15;;
61336;SDS011;47212;41.326;2.104;2022-09-21T16:02:42;6.53;;;1.52;;
61336;SDS011;47212;41.326;2.104;2022-09-21T16:08:05;2.72;;;1.77;;
61336;SDS011;47212;41.326;2.104;2022-09-21T16:18:51;4.07;;;1.23;;
61336;SDS011;47212;41.326;2.104;2022-09-21T16:23:56;5.70;;;1.38;;
61336;SDS011;47212;41.326;2.104;2022-09-21T16:29:19;2.85;;;1.08;;
61336;SDS011;47212;41.326;2.104;2022-09-21T16:34:31;4.05;;;1.70;;
61336;SDS011;47212;41.326;2.104;2022-09-21T16:39:38;2.15;;;1.40;;
61336;SDS011;47212;41.326;2.104;2022-09-21T16:44:41;3.28;;;1.27;;
61336;SDS011;47212;41.326;2.104;2022-09-21T16:49:46;4.32;;;1.42;;
61336;SDS011;47212;41.326;2.104;2022-09-21T16:54:48;4.35;;;1.95;;
61336;SDS011;47212;41.326;2.104;2022-09-21T16:59:51;4.05;;;1.63;;
61336;SDS011;47212;41.326;2.104;2022-09-21T17:04:53;3.58;;;1.50;;
61336;SDS011;47212;41.326;2.104;2022-09-21T17:09:55;2.60;;;1.48;;
61336;SDS011;47212;41.326;2.104;2022-09-21T17:14:57;7.40;;;1.88;;
61336;SDS011;47212;41.326;2.104;2022-09-21T17:20:01;5.80;;;1.50;;
61336;SDS011;47212;41.326;2.104;2022-09-21T17:25:18;2.80;;;1.50;;
61336;SDS011;47212;41.326;2.104;2022-09-21T17:30:20;6.10;;;1.88;;
61336;SDS011;47212;41.326;2.104;2022-09-21T17:40:42;7.75;;;2.60;;
61336;SDS011;47212;41.326;2.104;2022-09-21T17:46:09;5.07;;;1.88;;
61336;SDS011;47212;41.326;2.104;2022-09-21T17:51:19;4.40;;;1.50;;
61336;SDS011;47212;41.326;2.104;2022-09-21T17:56:42;8.20;;;1.90;;
61336;SDS011;47212;41.326;2.104;2022-09-21T18:01:46;3.67;;;1.58;;
61336;SDS011;47212;41.326;2.104;2022-09-21T18:06:49;9.80;;;1.90;;
61336;SDS011;47212;41.326;2.104;2022-09-21T18:11:57;7.15;;;2.35;;
61336;SDS011;47212;41.326;2.104;2022-09-21T18:33:42;7.13;;;1.83;;
61336;SDS011;47212;41.326;2.104;2022-09-21T18:39:02;7.82;;;2.17;;
61336;SDS011;47212;41.326;2.104;2022-09-21T18:44:54;4.65;;;2.13;;
61336;SDS011;47212;41.326;2.104;2022-09-21T18:50:25;6.55;;;3.03;;
61336;SDS011;47212;41.326;2.104;2022-09-21T18:55:34;5.57;;;2.38;;
61336;SDS011;47212;41.326;2.104;2022-09-21T19:00:37;3.58;;;1.40;;
61336;SDS011;47212;41.326;2.104;2022-09-21T19:05:57;4.68;;;2.10;;
61336;SDS011;47212;41.326;2.104;2022-09-21T19:11:15;3.50;;;1.60;;
61336;SDS011;47212;41.326;2.104;2022-09-21T19:16:36;6.05;;;1.80;;
61336;SDS011;47212;41.326;2.104;2022-09-21T19:22:23;6.07;;;2.00;;
61336;SDS011;47212;41.326;2.104;2022-09-21T19:28:12;4.18;;;1.67;;
61336;SDS011;47212;41.326;2.104;2022-09-21T19:33:23;4.68;;;1.42;;
61336;SDS011;47212;41.326;2.104;2022-09-21T19:38:50;5.50;;;1.30;;
61336;SDS011;47212;41.326;2.104;2022-09-21T19:43:55;6.35;;;2.33;;
61336;SDS011;47212;41.326;2.104;2022-09-21T19:49:19;5.70;;;1.70;;
61336;SDS011;47212;41.326;2.104;2022-09-21T19:54:24;2.97;;;1.30;;
61336;SDS011;47212;41.326;2.104;2022-09-21T19:59:45;2.93;;;1.50;;
61336;SDS011;47212;41.326;2.104;2022-09-21T20:04:55;4.47;;;1.70;;
61336;SDS011;47212;41.326;2.104;2022-09-21T20:15:04;2.47;;;1.40;;
61336;SDS011;47212;41.326;2.104;2022-09-21T20:20:14;4.65;;;1.35;;
61336;SDS011;47212;41.326;2.104;2022-09-21T20:25:34;2.80;;;1.40;;
61336;SDS011;47212;41.326;2.104;2022-09-21T20:30:58;4.25;;;1.83;;
61336;SDS011;47212;41.326;2.104;2022-09-21T20:36:00;8.90;;;1.50;;
61336;SDS011;47212;41.326;2.104;2022-09-21T20:41:03;4.53;;;1.45;;
61336;SDS011;47212;41.326;2.104;2022-09-21T20:46:16;2.85;;;1.38;;
61336;SDS011;47212;41.326;2.104;2022-09-21T20:51:18;3.17;;;1.40;;
61336;SDS011;47212;41.326;2.104;2022-09-21T20:56:20;4.78;;;1.27;;
61336;SDS011;47212;41.326;2.104;2022-09-21T21:01:31;4.50;;;1.55;;
61336;SDS011;47212;41.326;2.104;2022-09-21T21:06:33;5.43;;;1.77;;
61336;SDS011;47212;41.326;2.104;2022-09-21T21:11:35;3.25;;;1.40;;
61336;SDS011;47212;41.326;2.104;2022-09-21T21:16:37;4.90;;;1.27;;
61336;SDS011;47212;41.326;2.104;2022-09-21T21:21:49;3.65;;;1.65;;
61336;SDS011;47212;41.326;2.104;2022-09-21T21:26:51;3.75;;;1.50;;
61336;SDS011;47212;41.326;2.104;2022-09-21T21:32:03;3.83;;;1.40;;
61336;SDS011;47212;41.326;2.104;2022-09-21T21:37:06;2.63;;;1.20;;
61336;SDS011;47212;41.326;2.104;2022-09-21T21:42:08;3.50;;;1.60;;
61336;SDS011;47212;41.326;2.104;2022-09-21T21:47:11;4.40;;;2.10;;
61336;SDS011;47212;41.326;2.104;2022-09-21T21:52:34;2.72;;;1.52;;
61336;SDS011;47212;41.326;2.104;2022-09-21T21:57:36;3.88;;;1.80;;
61336;SDS011;47212;41.326;2.104;2022-09-21T22:02:37;3.78;;;1.30;;
61336;SDS011;47212;41.326;2.104;2022-09-21T22:07:39;4.00;;;2.13;;
61336;SDS011;47212;41.326;2.104;2022-09-21T22:12:41;6.18;;;1.88;;
61336;SDS011;47212;41.326;2.104;2022-09-21T22:17:44;8.70;;;2.30;;
61336;SDS011;47212;41.326;2.104;2022-09-21T22:22:46;3.72;;;1.80;;
61336;SDS011;47212;41.326;2.104;2022-09-21T22:27:49;7.40;;;2.03;;
61336;SDS011;47212;41.326;2.104;2022-09-21T22:32:51;3.58;;;1.80;;
61336;SDS011;47212;41.326;2.104;2022-09-21T22:37:53;3.40;;;1.85;;
61336;SDS011;47212;41.326;2.104;2022-09-21T22:42:56;11.23;;;2.30;;
61336;SDS011;47212;41.326;2.104;2022-09-21T22:47:58;5.22;;;2.33;;
61336;SDS011;47212;41.326;2.104;2022-09-21T22:53:00;4.13;;;2.20;;
61336;SDS011;47212;41.326;2.104;2022-09-21T22:58:03;5.28;;;2.83;;
61336;SDS011;47212;41.326;2.104;2022-09-21T23:03:05;4.63;;;2.47;;
61336;SDS011;47212;41.326;2.104;2022-09-21T23:08:08;5.63;;;2.35;;
61336;SDS011;47212;41.326;2.104;2022-09-21T23:13:10;3.17;;;1.92;;
61336;SDS011;47212;41.326;2.104;2022-09-21T23:18:16;4.45;;;3.63;;
61336;SDS011;47212;41.326;2.104;2022-09-21T23:23:19;3.58;;;2.33;;
61336;SDS011;47212;41.326;2.104;2022-09-21T23:28:21;3.47;;;1.98;;
61336;SDS011;47212;41.326;2.104;2022-09-21T23:33:23;2.35;;;1.60;;
61336;SDS011;47212;41.326;2.104;2022-09-21T23:38:25;5.28;;;1.73;;
61336;SDS011;47212;41.326;2.104;2022-09-21T23:43:30;2.88;;;1.67;;
61336;SDS011;47212;41.326;2.104;2022-09-21T23:48:32;2.60;;;1.60;;
61336;SDS011;47212;41.326;2.104;2022-09-21T23:53:35;2.30;;;1.42;;
61336;SDS011;47212;41.326;2.104;2022-09-21T23:58:37;6.25;;;2.30;;
